Time;durP1;ratioP1;P1;durP2;ratioP2;P2;SDS_P1;SDS_P2;PMS_P1;PMS_P2;Temp;Humidity;BMP_temperature;BMP_pressure;BME280_temperature;BME280_humidity;BME280_pressure;Samples;Min_cycle;Max_cycle;Signal;HPM_P1;HPM_P2
2023/12/12 00:00:59;;;;;;;6.45;2.03;;;;;;;;;;4790253;29;20054;-95
2023/12/12 00:03:25;;;;;;;7.88;1.98;;;;;;;;;;4789894;29;20479;-95
2023/12/12 00:05:51;;;;;;;10.15;1.65;;;;;;;;;;4790537;29;20115;-95
2023/12/12 00:08:17;;;;;;;3.60;1.45;;;;;;;;;;4790495;29;20137;-96
2023/12/12 00:10:44;;;;;;;5.70;1.73;;;;;;;;;;4792121;29;20047;-93
2023/12/12 00:13:10;;;;;;;4.38;2.15;;;;;;;;;;4794012;29;20050;-95
2023/12/12 00:15:42;;;;;;;4.85;1.40;;;;;;;;;;4779440;29;20054;-95
2023/12/12 00:18:08;;;;;;;6.55;1.75;;;;;;;;;;4778685;29;20114;-94
2023/12/12 00:20:36;;;;;;;7.63;1.70;;;;;;;;;;4794216;29;20057;-95
2023/12/12 00:23:03;;;;;;;6.32;1.67;;;;;;;;;;4793526;29;20046;-95
2023/12/12 00:25:29;;;;;;;7.13;2.03;;;;;;;;;;4778610;29;20047;-95
2023/12/12 00:27:55;;;;;;;6.57;1.88;;;;;;;;;;4793828;29;20057;-95
2023/12/12 00:30:21;;;;;;;2.08;1.30;;;;;;;;;;4793523;29;20417;-95
2023/12/12 00:32:50;;;;;;;2.78;1.25;;;;;;;;;;4794154;29;20057;-94
2023/12/12 00:35:16;;;;;;;9.50;1.98;;;;;;;;;;4793499;29;20046;-95
2023/12/12 00:37:42;;;;;;;8.10;1.77;;;;;;;;;;4778949;29;20096;-94
2023/12/12 00:40:10;;;;;;;4.32;2.00;;;;;;;;;;4793531;29;20047;-94
2023/12/12 00:42:43;;;;;;;2.30;1.35;;;;;;;;;;4792836;29;20057;-95
2023/12/12 00:45:10;;;;;;;4.20;2.35;;;;;;;;;;4793163;29;20042;-95
2023/12/12 00:47:36;;;;;;;3.78;1.73;;;;;;;;;;4793878;29;20100;-95
2023/12/12 00:50:23;;;;;;;5.70;1.85;;;;;;;;;;4793268;29;20088;-95
2023/12/12 00:52:49;;;;;;;7.05;1.88;;;;;;;;;;4793245;29;20054;-94
2023/12/12 00:55:18;;;;;;;3.50;1.90;;;;;;;;;;4793223;29;20086;-95
2023/12/12 00:57:45;;;;;;;6.10;2.03;;;;;;;;;;4792766;29;20046;-95
2023/12/12 01:00:11;;;;;;;10.75;2.53;;;;;;;;;;4795066;29;20086;-94
2023/12/12 01:02:37;;;;;;;8.73;1.70;;;;;;;;;;4792604;29;20101;-94
2023/12/12 01:05:03;;;;;;;8.25;2.03;;;;;;;;;;4793067;29;20062;-95
2023/12/12 01:07:49;;;;;;;2.90;1.60;;;;;;;;;;4777852;29;20054;-94
2023/12/12 01:10:15;;;;;;;6.55;1.85;;;;;;;;;;4793189;29;20497;-95
2023/12/12 01:12:42;;;;;;;2.72;1.70;;;;;;;;;;4792954;29;20096;-94
2023/12/12 01:15:10;;;;;;;7.13;1.77;;;;;;;;;;4793449;29;20141;-94
2023/12/12 01:17:37;;;;;;;9.02;1.77;;;;;;;;;;4792431;29;20476;-94
2023/12/12 01:20:03;;;;;;;3.45;1.70;;;;;;;;;;4791649;29;20131;-95
2023/12/12 01:22:30;;;;;;;4.80;1.60;;;;;;;;;;4791794;29;20059;-94
2023/12/12 01:25:01;;;;;;;7.93;2.55;;;;;;;;;;4777598;29;20544;-96
2023/12/12 01:27:27;;;;;;;6.22;1.90;;;;;;;;;;4778101;29;20051;-95
2023/12/12 01:29:54;;;;;;;8.55;2.17;;;;;;;;;;4792835;29;20200;-95
2023/12/12 01:32:20;;;;;;;3.75;2.03;;;;;;;;;;4791727;29;20093;-95
2023/12/12 01:34:46;;;;;;;2.33;1.67;;;;;;;;;;4777452;29;20051;-95
2023/12/12 01:37:12;;;;;;;1.65;1.55;;;;;;;;;;4792159;29;20541;-95
2023/12/12 01:39:39;;;;;;;5.15;2.10;;;;;;;;;;4792692;29;20137;-95
2023/12/12 01:42:05;;;;;;;4.10;1.80;;;;;;;;;;4792169;29;20061;-95
2023/12/12 01:44:31;;;;;;;5.70;2.15;;;;;;;;;;4792523;29;20047;-95
2023/12/12 01:46:57;;;;;;;1.80;1.50;;;;;;;;;;4792466;29;20082;-95
2023/12/12 01:49:23;;;;;;;6.28;2.08;;;;;;;;;;4792134;29;20039;-95
2023/12/12 01:51:49;;;;;;;5.28;2.20;;;;;;;;;;4792705;29;20517;-94
2023/12/12 01:54:17;;;;;;;3.33;1.90;;;;;;;;;;4793121;29;20047;-95
2023/12/12 01:56:46;;;;;;;4.18;1.83;;;;;;;;;;4792477;29;20054;-95
2023/12/12 01:59:12;;;;;;;4.82;1.90;;;;;;;;;;4792095;29;20082;-94
2023/12/12 02:01:39;;;;;;;6.40;2.00;;;;;;;;;;4792206;29;20053;-95
2023/12/12 02:04:05;;;;;;;4.40;2.83;;;;;;;;;;4792397;29;20046;-93
2023/12/12 02:06:31;;;;;;;5.75;1.70;;;;;;;;;;4792785;29;20097;-94
2023/12/12 02:08:57;;;;;;;3.72;2.67;;;;;;;;;;4791589;29;20501;-96
2023/12/12 02:11:23;;;;;;;4.55;1.88;;;;;;;;;;4791993;29;20054;-95
2023/12/12 02:13:49;;;;;;;6.30;2.75;;;;;;;;;;4791886;29;20058;-95
2023/12/12 02:16:17;;;;;;;11.52;2.30;;;;;;;;;;4791816;29;20061;-96
2023/12/12 02:18:43;;;;;;;3.92;1.90;;;;;;;;;;4791385;29;20043;-95
2023/12/12 02:21:09;;;;;;;8.25;2.03;;;;;;;;;;4792123;29;20046;-94
2023/12/12 02:23:35;;;;;;;5.25;2.10;;;;;;;;;;4791419;29;20055;-95
2023/12/12 02:26:02;;;;;;;5.32;2.42;;;;;;;;;;4791744;29;20051;-95
2023/12/12 02:28:31;;;;;;;6.72;2.20;;;;;;;;;;4791979;29;20047;-94
2023/12/12 02:31:02;;;;;;;5.50;2.00;;;;;;;;;;4773842;30;20048;-94
2023/12/12 02:33:29;;;;;;;1.83;1.73;;;;;;;;;;4773169;30;20142;-95
2023/12/12 02:35:55;;;;;;;7.00;2.35;;;;;;;;;;4774546;29;20105;-95
2023/12/12 02:38:21;;;;;;;5.97;2.00;;;;;;;;;;4791318;29;20103;-94
2023/12/12 02:40:47;;;;;;;3.75;1.98;;;;;;;;;;4791476;29;20042;-94
2023/12/12 02:43:13;;;;;;;6.82;2.08;;;;;;;;;;4791360;29;20053;-95
2023/12/12 02:45:40;;;;;;;4.88;2.83;;;;;;;;;;4790835;29;20076;-94
2023/12/12 02:48:06;;;;;;;3.15;2.00;;;;;;;;;;4791855;29;20086;-95
2023/12/12 02:50:32;;;;;;;4.35;1.98;;;;;;;;;;4763945;30;20051;-95
2023/12/12 02:52:58;;;;;;;3.47;2.38;;;;;;;;;;4773222;30;20505;-95
2023/12/12 02:55:24;;;;;;;10.48;2.42;;;;;;;;;;4773573;30;20058;-95
2023/12/12 02:57:50;;;;;;;10.57;2.92;;;;;;;;;;4773343;30;20077;-95
2023/12/12 03:00:16;;;;;;;8.52;2.65;;;;;;;;;;4774430;30;20133;-94
2023/12/12 03:02:43;;;;;;;4.18;1.98;;;;;;;;;;4788323;30;20574;-95
2023/12/12 03:05:09;;;;;;;7.75;2.42;;;;;;;;;;4787842;30;20051;-95
2023/12/12 03:07:35;;;;;;;4.38;2.42;;;;;;;;;;4814128;24;20058;-95
2023/12/12 03:10:01;;;;;;;5.25;2.50;;;;;;;;;;4808912;29;20081;-95
2023/12/12 03:12:30;;;;;;;5.40;2.67;;;;;;;;;;4808787;29;20043;-95
2023/12/12 03:14:56;;;;;;;4.95;2.60;;;;;;;;;;4796067;29;20055;-95
2023/12/12 03:17:25;;;;;;;4.60;2.30;;;;;;;;;;4791095;29;20051;-95
2023/12/12 03:19:57;;;;;;;5.88;2.67;;;;;;;;;;4778281;29;20051;-94
2023/12/12 03:22:23;;;;;;;5.95;2.70;;;;;;;;;;4791159;29;20134;-95
2023/12/12 03:24:49;;;;;;;7.43;2.33;;;;;;;;;;4790969;29;20053;-95
2023/12/12 03:27:16;;;;;;;8.70;2.70;;;;;;;;;;4791411;29;20493;-95
2023/12/12 03:29:42;;;;;;;6.07;2.15;;;;;;;;;;4808176;29;20531;-94
2023/12/12 03:32:08;;;;;;;6.82;2.50;;;;;;;;;;4809073;29;20054;-95
2023/12/12 03:34:34;;;;;;;7.78;2.47;;;;;;;;;;4808781;29;20093;-94
2023/12/12 03:37:00;;;;;;;3.38;2.15;;;;;;;;;;4799537;29;20051;-94
2023/12/12 03:39:26;;;;;;;6.32;2.85;;;;;;;;;;4808667;29;20050;-94
2023/12/12 03:41:52;;;;;;;8.73;2.33;;;;;;;;;;4808541;29;20106;-95
2023/12/12 03:44:21;;;;;;;9.25;2.67;;;;;;;;;;4792196;29;20053;-96
2023/12/12 03:46:47;;;;;;;4.57;1.90;;;;;;;;;;4809160;29;20051;-95
2023/12/12 03:49:13;;;;;;;3.25;2.42;;;;;;;;;;4809074;29;20521;-95
2023/12/12 03:51:39;;;;;;;6.40;2.15;;;;;;;;;;4808054;29;20057;-95
2023/12/12 03:54:06;;;;;;;4.55;2.05;;;;;;;;;;4808483;29;20535;-95
2023/12/12 03:56:35;;;;;;;6.70;3.17;;;;;;;;;;4808655;29;20079;-96
2023/12/12 03:59:04;;;;;;;3.83;2.25;;;;;;;;;;4793849;29;20050;-96
2023/12/12 04:01:31;;;;;;;8.82;2.70;;;;;;;;;;4808359;29;20046;-96
2023/12/12 04:04:00;;;;;;;8.38;2.60;;;;;;;;;;4809602;29;20062;-95
2023/12/12 04:06:26;;;;;;;7.10;2.72;;;;;;;;;;4797987;29;20078;-95
2023/12/12 04:08:52;;;;;;;3.08;2.50;;;;;;;;;;4811680;29;20114;-95
2023/12/12 04:11:18;;;;;;;5.47;2.08;;;;;;;;;;4812740;29;20133;-96
2023/12/12 04:13:44;;;;;;;6.20;3.13;;;;;;;;;;4813302;29;20050;-96
2023/12/12 04:16:11;;;;;;;6.78;2.92;;;;;;;;;;4803825;29;20059;-94
2023/12/12 04:18:37;;;;;;;6.50;2.58;;;;;;;;;;4793206;29;20055;-94
2023/12/12 04:21:04;;;;;;;4.13;2.90;;;;;;;;;;4790521;29;20554;-94
2023/12/12 04:23:30;;;;;;;7.78;3.40;;;;;;;;;;4789975;29;20050;-94
2023/12/12 04:25:56;;;;;;;15.27;2.60;;;;;;;;;;4790778;29;20043;-95
2023/12/12 04:28:22;;;;;;;12.02;3.75;;;;;;;;;;4790067;29;20062;-94
2023/12/12 04:30:48;;;;;;;5.97;2.83;;;;;;;;;;4806928;29;20564;-94
2023/12/12 04:33:15;;;;;;;7.55;2.40;;;;;;;;;;4808223;29;20042;-95
2023/12/12 04:35:42;;;;;;;11.20;3.25;;;;;;;;;;4807737;29;20047;-96
2023/12/12 04:38:08;;;;;;;7.60;2.58;;;;;;;;;;4808053;29;20062;-94
2023/12/12 04:40:34;;;;;;;5.45;2.60;;;;;;;;;;4808344;29;20503;-95
2023/12/12 04:43:00;;;;;;;5.63;2.40;;;;;;;;;;4807627;29;20076;-94
2023/12/12 04:45:26;;;;;;;8.80;2.80;;;;;;;;;;4808426;29;20051;-95
2023/12/12 04:47:52;;;;;;;6.20;2.70;;;;;;;;;;4807976;29;20050;-95
2023/12/12 04:50:18;;;;;;;6.57;3.30;;;;;;;;;;4792756;29;20055;-94
2023/12/12 04:52:44;;;;;;;11.85;2.83;;;;;;;;;;4789875;29;20501;-94
2023/12/12 04:55:10;;;;;;;5.63;2.78;;;;;;;;;;4793337;29;20058;-96
2023/12/12 04:57:36;;;;;;;4.30;2.55;;;;;;;;;;4793225;29;20055;-96
2023/12/12 05:00:03;;;;;;;4.43;3.20;;;;;;;;;;4803812;29;20082;-94
2023/12/12 05:02:31;;;;;;;7.72;2.90;;;;;;;;;;4810633;29;20050;-96
2023/12/12 05:04:58;;;;;;;8.52;3.00;;;;;;;;;;4807653;29;20603;-96
2023/12/12 05:07:30;;;;;;;9.20;2.80;;;;;;;;;;4811616;29;20165;-95
2023/12/12 05:09:56;;;;;;;10.90;4.47;;;;;;;;;;4796107;29;20038;-94
2023/12/12 05:12:23;;;;;;;9.38;3.50;;;;;;;;;;4825993;29;20046;-94
2023/12/12 05:14:49;;;;;;;5.40;3.33;;;;;;;;;;4801635;29;20521;-95
2023/12/12 05:17:15;;;;;;;11.30;3.35;;;;;;;;;;4792519;29;20090;-93
2023/12/12 05:19:41;;;;;;;8.70;3.50;;;;;;;;;;4792689;29;20073;-94
2023/12/12 05:22:07;;;;;;;11.75;3.75;;;;;;;;;;4793332;29;20572;-94
2023/12/12 05:24:33;;;;;;;6.75;3.72;;;;;;;;;;4781475;29;20392;-94
2023/12/12 05:27:00;;;;;;;6.85;3.25;;;;;;;;;;4792708;29;20064;-95
2023/12/12 05:29:26;;;;;;;8.18;3.20;;;;;;;;;;4792882;29;20104;-94
2023/12/12 05:31:52;;;;;;;7.70;4.45;;;;;;;;;;4804109;29;20058;-94
2023/12/12 05:34:21;;;;;;;7.70;3.60;;;;;;;;;;4795914;29;20077;-94
2023/12/12 05:36:47;;;;;;;11.68;3.05;;;;;;;;;;4802560;29;20050;-93
2023/12/12 05:39:14;;;;;;;7.78;3.80;;;;;;;;;;4777505;29;20046;-94
2023/12/12 05:41:41;;;;;;;8.52;4.55;;;;;;;;;;4792913;29;20055;-94
2023/12/12 05:44:07;;;;;;;9.10;3.78;;;;;;;;;;4795924;29;20039;-95
2023/12/12 05:46:33;;;;;;;12.43;4.40;;;;;;;;;;4777880;29;20051;-94
2023/12/12 05:49:00;;;;;;;11.27;4.15;;;;;;;;;;4804722;29;20050;-95
2023/12/12 05:51:26;;;;;;;11.65;4.65;;;;;;;;;;4810250;29;20046;-94
2023/12/12 05:53:52;;;;;;;7.50;4.32;;;;;;;;;;4812960;29;20133;-95
2023/12/12 05:56:18;;;;;;;14.73;4.97;;;;;;;;;;4811468;29;20515;-95
2023/12/12 05:58:45;;;;;;;9.57;4.50;;;;;;;;;;4810362;29;20112;-95
2023/12/12 06:01:11;;;;;;;10.00;4.45;;;;;;;;;;4810104;29;20047;-94
2023/12/12 06:03:37;;;;;;;6.28;4.32;;;;;;;;;;4810360;29;20054;-95
2023/12/12 06:06:07;;;;;;;7.68;4.60;;;;;;;;;;4813595;29;20042;-96
2023/12/12 06:08:38;;;;;;;7.97;4.65;;;;;;;;;;4820997;29;20409;-94
2023/12/12 06:11:04;;;;;;;7.00;4.93;;;;;;;;;;4794519;30;20090;-94
2023/12/12 06:13:33;;;;;;;6.55;4.18;;;;;;;;;;4770018;30;20067;-94
2023/12/12 06:16:08;;;;;;;7.30;3.55;;;;;;;;;;4780404;30;20070;-94
2023/12/12 06:18:34;;;;;;;6.80;3.65;;;;;;;;;;4776272;30;20069;-96
2023/12/12 06:21:02;;;;;;;10.25;4.85;;;;;;;;;;4775616;30;20054;-95
2023/12/12 06:23:29;;;;;;;6.95;4.55;;;;;;;;;;4758654;30;20420;-93
2023/12/12 06:25:57;;;;;;;11.23;4.57;;;;;;;;;;4775534;30;20739;-95
2023/12/12 06:28:23;;;;;;;10.80;4.20;;;;;;;;;;4758602;30;20095;-95
2023/12/12 06:30:49;;;;;;;10.63;5.00;;;;;;;;;;4753701;30;20120;-95
2023/12/12 06:33:15;;;;;;;12.25;5.10;;;;;;;;;;4755705;30;20059;-96
2023/12/12 06:36:24;;;;;;;;;;;;;;;;;;;;;
2023/12/12 06:38:53;;;;;;;10.65;5.18;;;;;;;;;;4786912;30;20055;-96
2023/12/12 06:41:19;;;;;;;8.93;4.80;;;;;;;;;;4791639;29;20059;-95
2023/12/12 06:43:45;;;;;;;7.93;5.90;;;;;;;;;;4811065;29;20050;-95
2023/12/12 06:46:11;;;;;;;12.00;5.78;;;;;;;;;;4799521;29;20043;-95
2023/12/12 06:48:38;;;;;;;11.70;5.57;;;;;;;;;;4791792;29;20058;-95
2023/12/12 06:51:09;;;;;;;12.05;5.78;;;;;;;;;;4806744;29;20090;-96
2023/12/12 06:53:35;;;;;;;9.80;5.85;;;;;;;;;;4806942;29;20058;-96
2023/12/12 06:56:02;;;;;;;19.35;6.85;;;;;;;;;;4792561;29;20053;-94
2023/12/12 06:58:28;;;;;;;16.00;8.50;;;;;;;;;;4806570;29;20642;-95
2023/12/12 07:00:54;;;;;;;18.95;7.97;;;;;;;;;;4806571;29;20053;-95
2023/12/12 07:03:21;;;;;;;15.02;8.20;;;;;;;;;;4811100;29;20058;-96
2023/12/12 07:05:51;;;;;;;19.42;8.95;;;;;;;;;;4791431;29;20054;-96
2023/12/12 07:08:18;;;;;;;19.88;9.25;;;;;;;;;;4793484;29;20508;-96
2023/12/12 07:10:45;;;;;;;16.73;8.30;;;;;;;;;;4792357;29;20112;-96
2023/12/12 07:13:11;;;;;;;18.02;8.27;;;;;;;;;;4816661;29;20087;-96
2023/12/12 07:15:38;;;;;;;15.18;7.75;;;;;;;;;;4830001;29;20041;-95
2023/12/12 07:18:10;;;;;;;15.70;7.88;;;;;;;;;;4823685;29;20098;-96
2023/12/12 07:20:36;;;;;;;14.70;6.53;;;;;;;;;;4810524;29;20069;-96
2023/12/12 07:23:04;;;;;;;20.38;7.30;;;;;;;;;;4805031;29;20055;-96
2023/12/12 07:25:30;;;;;;;24.48;8.50;;;;;;;;;;4790825;29;20059;-96
2023/12/12 07:27:58;;;;;;;45.40;9.57;;;;;;;;;;4776079;29;20043;-96
2023/12/12 07:30:27;;;;;;;51.10;9.57;;;;;;;;;;4807104;29;20049;-96
2023/12/12 07:32:54;;;;;;;91.28;10.02;;;;;;;;;;4808429;29;20051;-95
2023/12/12 07:35:20;;;;;;;80.95;10.75;;;;;;;;;;4793547;29;20408;-95
2023/12/12 07:37:46;;;;;;;59.47;9.57;;;;;;;;;;4797960;29;20141;-95
2023/12/12 07:40:13;;;;;;;152.38;13.65;;;;;;;;;;4790647;29;20053;-95
2023/12/12 07:42:39;;;;;;;143.05;16.80;;;;;;;;;;4807943;29;20061;-95
2023/12/12 07:45:07;;;;;;;141.13;15.52;;;;;;;;;;4808058;29;20125;-95
2023/12/12 07:47:33;;;;;;;85.72;12.68;;;;;;;;;;4808231;29;20054;-96
2023/12/12 07:49:59;;;;;;;96.45;13.52;;;;;;;;;;4808501;29;20057;-96
2023/12/12 07:52:26;;;;;;;197.90;18.52;;;;;;;;;;4793628;29;20054;-96
2023/12/12 07:54:52;;;;;;;137.48;14.23;;;;;;;;;;4799284;29;20488;-96
2023/12/12 07:57:18;;;;;;;29.08;10.05;;;;;;;;;;4790627;29;20043;-95
2023/12/12 07:59:44;;;;;;;95.35;12.23;;;;;;;;;;4790640;29;20055;-95
2023/12/12 08:02:11;;;;;;;193.30;19.10;;;;;;;;;;4791158;29;20047;-95
2023/12/12 08:04:37;;;;;;;166.93;19.65;;;;;;;;;;4790174;29;20513;-95
2023/12/12 08:07:04;;;;;;;85.95;13.75;;;;;;;;;;4790307;29;20428;-96
2023/12/12 08:09:30;;;;;;;55.88;12.65;;;;;;;;;;4777734;29;20058;-95
2023/12/12 08:11:57;;;;;;;45.67;14.63;;;;;;;;;;4808120;29;20137;-95
2023/12/12 08:14:23;;;;;;;158.50;23.35;;;;;;;;;;4808202;29;20107;-96
2023/12/12 08:16:49;;;;;;;84.57;15.25;;;;;;;;;;4808168;29;20054;-96
2023/12/12 08:19:16;;;;;;;155.32;22.42;;;;;;;;;;4807076;29;20054;-96
2023/12/12 08:21:42;;;;;;;130.52;19.63;;;;;;;;;;4807988;29;20512;-96
2023/12/12 08:24:08;;;;;;;66.93;14.40;;;;;;;;;;4808418;29;20061;-96
2023/12/12 08:26:44;;;;;;;59.97;14.05;;;;;;;;;;4799193;29;20043;-96
2023/12/12 08:29:11;;;;;;;77.45;18.00;;;;;;;;;;4790082;29;20516;-94
2023/12/12 08:31:39;;;;;;;56.88;14.95;;;;;;;;;;4792304;29;20165;-95
2023/12/12 08:34:06;;;;;;;106.30;20.50;;;;;;;;;;4778969;29;20055;-96
2023/12/12 08:36:32;;;;;;;128.15;21.23;;;;;;;;;;4805527;29;20099;-96
2023/12/12 08:38:59;;;;;;;44.40;16.38;;;;;;;;;;4811947;29;20054;-96
2023/12/12 08:41:28;;;;;;;24.85;13.43;;;;;;;;;;4811254;29;20130;-96
2023/12/12 08:43:55;;;;;;;79.22;20.30;;;;;;;;;;4810343;29;20508;-95
2023/12/12 08:46:26;;;;;;;43.17;14.38;;;;;;;;;;4811216;29;20055;-96
2023/12/12 08:48:53;;;;;;;33.15;14.63;;;;;;;;;;4810921;29;20050;-96
2023/12/12 08:51:19;;;;;;;79.72;18.38;;;;;;;;;;4811063;29;20054;-96
2023/12/12 08:53:45;;;;;;;61.97;16.33;;;;;;;;;;4811086;29;20121;-95
2023/12/12 08:56:16;;;;;;;44.95;15.63;;;;;;;;;;4804430;29;20416;-96
2023/12/12 08:58:42;;;;;;;88.13;19.15;;;;;;;;;;4792836;29;20665;-96
2023/12/12 09:01:09;;;;;;;65.75;19.08;;;;;;;;;;4792976;29;20047;-96
2023/12/12 09:03:35;;;;;;;167.77;27.63;;;;;;;;;;4792684;29;20579;-96
2023/12/12 09:06:02;;;;;;;121.45;20.25;;;;;;;;;;4793333;29;20134;-95
2023/12/12 09:08:28;;;;;;;115.90;21.13;;;;;;;;;;4777759;29;20090;-96
2023/12/12 09:10:54;;;;;;;79.22;18.70;;;;;;;;;;4809453;29;20099;-96
2023/12/12 09:13:20;;;;;;;184.48;24.63;;;;;;;;;;4778883;29;20059;-96
2023/12/12 09:15:46;;;;;;;146.95;21.80;;;;;;;;;;4792906;29;20074;-96
2023/12/12 09:18:12;;;;;;;155.25;24.27;;;;;;;;;;4793001;29;20478;-96
2023/12/12 09:20:38;;;;;;;78.88;18.90;;;;;;;;;;4795964;29;20141;-96
2023/12/12 09:23:07;;;;;;;95.85;19.73;;;;;;;;;;4797723;29;20050;-96
2023/12/12 09:25:33;;;;;;;142.98;22.95;;;;;;;;;;4797803;29;20107;-96
2023/12/12 09:27:59;;;;;;;118.65;24.20;;;;;;;;;;4812132;29;20046;-96
2023/12/12 09:30:28;;;;;;;124.20;21.38;;;;;;;;;;4799792;29;20084;-96
2023/12/12 09:32:54;;;;;;;202.13;26.83;;;;;;;;;;4815722;29;20173;-95
2023/12/12 09:35:20;;;;;;;137.63;25.77;;;;;;;;;;4815757;29;20137;-95
2023/12/12 09:37:46;;;;;;;60.78;16.02;;;;;;;;;;4810713;29;20129;-96
2023/12/12 09:40:12;;;;;;;73.20;16.55;;;;;;;;;;4810316;29;20046;-96
2023/12/12 09:42:40;;;;;;;130.40;21.92;;;;;;;;;;4805952;29;20050;-95
2023/12/12 09:45:13;;;;;;;74.90;17.25;;;;;;;;;;4792290;29;20047;-95
2023/12/12 09:47:40;;;;;;;50.57;15.73;;;;;;;;;;4798232;29;20500;-96
2023/12/12 09:50:07;;;;;;;77.28;17.92;;;;;;;;;;4810159;29;20099;-96
2023/12/12 09:52:35;;;;;;;54.72;14.55;;;;;;;;;;4796668;29;20047;-95
2023/12/12 09:55:01;;;;;;;112.85;22.23;;;;;;;;;;4792172;29;20051;-96
2023/12/12 09:57:30;;;;;;;115.85;19.40;;;;;;;;;;4792804;29;20051;-95
2023/12/12 09:59:58;;;;;;;70.90;16.75;;;;;;;;;;4799526;29;20206;-95
2023/12/12 10:02:27;;;;;;;73.63;16.52;;;;;;;;;;4808749;29;20125;-96
2023/12/12 10:04:56;;;;;;;58.92;16.38;;;;;;;;;;4808119;29;20130;-96
2023/12/12 10:07:24;;;;;;;47.60;15.77;;;;;;;;;;4791760;29;20066;-96
2023/12/12 10:09:50;;;;;;;76.20;18.30;;;;;;;;;;4792304;29;20053;-96
2023/12/12 10:12:17;;;;;;;52.40;18.27;;;;;;;;;;4792127;29;20057;-96
2023/12/12 10:14:49;;;;;;;74.13;18.27;;;;;;;;;;4791973;29;20043;-96
2023/12/12 10:17:15;;;;;;;165.57;23.30;;;;;;;;;;4799363;29;20419;-96
2023/12/12 10:19:42;;;;;;;146.60;24.17;;;;;;;;;;4809850;29;20042;-96
2023/12/12 10:22:09;;;;;;;116.60;19.23;;;;;;;;;;4809770;29;20054;-96
2023/12/12 10:24:35;;;;;;;130.75;21.95;;;;;;;;;;4809868;29;20472;-96
2023/12/12 10:27:02;;;;;;;138.73;21.40;;;;;;;;;;4810237;29;20441;-96
2023/12/12 10:29:29;;;;;;;157.80;23.00;;;;;;;;;;4809976;29;20103;-96
2023/12/12 10:31:55;;;;;;;135.02;21.27;;;;;;;;;;4796883;29;20054;-96
2023/12/12 10:34:23;;;;;;;147.75;24.02;;;;;;;;;;4782547;29;20488;-95
2023/12/12 10:36:49;;;;;;;116.65;19.92;;;;;;;;;;4791540;29;20412;-96
2023/12/12 10:39:16;;;;;;;64.90;15.45;;;;;;;;;;4791698;29;20497;-96
2023/12/12 10:41:55;;;;;;;132.20;21.15;;;;;;;;;;4791282;29;20042;-96
2023/12/12 10:44:22;;;;;;;61.08;16.73;;;;;;;;;;4791250;29;20050;-96
2023/12/12 10:46:52;;;;;;;87.03;18.90;;;;;;;;;;4797160;29;20046;-96
2023/12/12 10:49:21;;;;;;;88.00;19.63;;;;;;;;;;4808940;29;20061;-96
2023/12/12 10:51:50;;;;;;;60.67;16.13;;;;;;;;;;4798988;29;20130;-96
2023/12/12 10:54:24;;;;;;;158.20;20.77;;;;;;;;;;4791074;29;20051;-96
2023/12/12 10:56:52;;;;;;;165.95;24.90;;;;;;;;;;4791158;29;20050;-95
2023/12/12 10:59:18;;;;;;;127.10;20.10;;;;;;;;;;4795861;29;20042;-96
2023/12/12 11:01:50;;;;;;;67.85;16.50;;;;;;;;;;4792592;29;20054;-95
2023/12/12 11:04:17;;;;;;;57.20;16.13;;;;;;;;;;4809038;29;20046;-96
2023/12/12 11:06:44;;;;;;;88.15;18.48;;;;;;;;;;4809060;29;20145;-96
2023/12/12 11:09:13;;;;;;;122.80;18.50;;;;;;;;;;4808623;29;20114;-96
2023/12/12 11:11:40;;;;;;;115.15;19.48;;;;;;;;;;4809393;29;20057;-96
2023/12/12 11:14:08;;;;;;;51.05;14.27;;;;;;;;;;4807616;29;20057;-96
2023/12/12 11:16:34;;;;;;;75.40;16.33;;;;;;;;;;4791202;29;20050;-96
2023/12/12 11:19:02;;;;;;;26.40;14.07;;;;;;;;;;4790685;29;20051;-96
2023/12/12 11:21:54;;;;;;;51.58;14.27;;;;;;;;;;4790428;29;20051;-96
2023/12/12 11:24:22;;;;;;;40.37;15.10;;;;;;;;;;4788366;29;20069;-96
2023/12/12 11:26:53;;;;;;;77.68;16.58;;;;;;;;;;4808302;29;20058;-96
2023/12/12 11:29:24;;;;;;;47.00;14.18;;;;;;;;;;4808444;29;20054;-96
2023/12/12 11:32:03;;;;;;;34.13;14.60;;;;;;;;;;4809021;29;20054;-96
2023/12/12 11:34:36;;;;;;;23.23;14.00;;;;;;;;;;4808967;29;20504;-96
2023/12/12 11:37:06;;;;;;;30.52;14.93;;;;;;;;;;4809353;29;20058;-96
2023/12/12 11:40:00;;;;;;;25.45;14.15;;;;;;;;;;4808835;29;20087;-96
2023/12/12 11:42:30;;;;;;;27.48;14.35;;;;;;;;;;4801412;29;20077;-96
2023/12/12 11:44:58;;;;;;;29.30;15.05;;;;;;;;;;4807999;29;20401;-96
2023/12/12 11:47:28;;;;;;;27.30;13.55;;;;;;;;;;4808627;29;20408;-96
2023/12/12 11:50:18;;;;;;;24.15;13.75;;;;;;;;;;4808772;29;20568;-96
2023/12/12 11:52:45;;;;;;;28.00;15.02;;;;;;;;;;4808817;29;20058;-96
2023/12/12 11:55:21;;;;;;;27.52;15.13;;;;;;;;;;4808592;29;20419;-96
2023/12/12 11:57:47;;;;;;;27.83;14.75;;;;;;;;;;4808843;29;20461;-96
2023/12/12 12:00:14;;;;;;;24.95;13.45;;;;;;;;;;4808957;29;20047;-96
2023/12/12 12:02:43;;;;;;;21.17;13.25;;;;;;;;;;4808447;29;20054;-96
2023/12/12 12:05:10;;;;;;;18.70;12.52;;;;;;;;;;4808574;29;20085;-96
2023/12/12 12:07:38;;;;;;;29.33;13.27;;;;;;;;;;4798612;29;20054;-96
2023/12/12 12:10:08;;;;;;;16.73;11.07;;;;;;;;;;4794118;29;20051;-96
2023/12/12 12:12:34;;;;;;;22.10;12.77;;;;;;;;;;4793580;29;20133;-96
2023/12/12 12:15:10;;;;;;;21.52;12.98;;;;;;;;;;4794239;29;20055;-96
2023/12/12 12:17:37;;;;;;;24.35;13.25;;;;;;;;;;4794626;29;20054;-96
2023/12/12 12:20:03;;;;;;;21.60;13.07;;;;;;;;;;4794150;29;20043;-96
2023/12/12 12:22:30;;;;;;;21.42;11.82;;;;;;;;;;4793561;29;20102;-96
2023/12/12 12:24:56;;;;;;;20.25;12.60;;;;;;;;;;4793184;29;20390;-96
2023/12/12 12:27:22;;;;;;;20.08;11.63;;;;;;;;;;4793847;29;20130;-96
2023/12/12 12:29:59;;;;;;;20.25;13.30;;;;;;;;;;4793839;29;20139;-96
2023/12/12 12:32:26;;;;;;;21.05;13.15;;;;;;;;;;4793885;29;20054;-96
2023/12/12 12:35:05;;;;;;;26.05;13.45;;;;;;;;;;4811106;29;20508;-96
2023/12/12 12:37:36;;;;;;;24.90;14.05;;;;;;;;;;4797599;29;20390;-95
2023/12/12 12:40:04;;;;;;;27.30;16.35;;;;;;;;;;4812150;29;20408;-95
2023/12/12 12:42:34;;;;;;;32.63;16.90;;;;;;;;;;4811521;29;20054;-95
2023/12/12 12:45:03;;;;;;;26.92;15.02;;;;;;;;;;4811309;29;20053;-96
2023/12/12 12:47:29;;;;;;;26.52;16.70;;;;;;;;;;4811193;29;20538;-95
2023/12/12 12:49:55;;;;;;;25.52;15.85;;;;;;;;;;4809980;29;20335;-96
2023/12/12 12:52:21;;;;;;;28.92;16.38;;;;;;;;;;4811513;29;20101;-95
2023/12/12 12:54:47;;;;;;;27.92;17.63;;;;;;;;;;4796499;29;20070;-96
2023/12/12 12:57:14;;;;;;;30.42;17.48;;;;;;;;;;4811177;29;20133;-96
2023/12/12 12:59:41;;;;;;;30.90;18.15;;;;;;;;;;4811031;29;20046;-95
2023/12/12 13:02:07;;;;;;;29.88;18.63;;;;;;;;;;4811211;29;20496;-96
2023/12/12 13:04:34;;;;;;;33.15;18.92;;;;;;;;;;4810246;29;20053;-95
2023/12/12 13:07:02;;;;;;;35.22;20.13;;;;;;;;;;4810835;29;20118;-96
2023/12/12 13:09:29;;;;;;;35.40;19.38;;;;;;;;;;4796542;29;20046;-96
2023/12/12 13:11:55;;;;;;;36.08;20.50;;;;;;;;;;4811132;29;20050;-95
2023/12/12 13:14:21;;;;;;;32.50;19.92;;;;;;;;;;4810269;29;20565;-96
2023/12/12 13:16:47;;;;;;;34.50;18.73;;;;;;;;;;4810488;29;20555;-95
2023/12/12 13:19:14;;;;;;;33.40;19.42;;;;;;;;;;4795476;29;20129;-96
2023/12/12 13:21:40;;;;;;;30.17;18.80;;;;;;;;;;4811186;29;20042;-96
2023/12/12 13:24:06;;;;;;;32.67;18.55;;;;;;;;;;4798456;29;20536;-96
2023/12/12 13:26:32;;;;;;;31.55;17.98;;;;;;;;;;4807041;29;20074;-96
2023/12/12 13:28:58;;;;;;;34.20;19.00;;;;;;;;;;4792990;29;20050;-95
2023/12/12 13:31:25;;;;;;;34.10;18.23;;;;;;;;;;4792742;29;20501;-96
2023/12/12 13:33:52;;;;;;;35.72;18.90;;;;;;;;;;4804432;29;20090;-96
2023/12/12 13:36:19;;;;;;;35.20;19.45;;;;;;;;;;4810427;29;20053;-94
2023/12/12 13:38:46;;;;;;;30.08;18.52;;;;;;;;;;4810651;29;20054;-95
2023/12/12 13:41:13;;;;;;;36.55;19.40;;;;;;;;;;4798794;29;20481;-95
2023/12/12 13:43:40;;;;;;;30.30;18.25;;;;;;;;;;4791918;29;20054;-96
2023/12/12 13:46:06;;;;;;;29.67;16.33;;;;;;;;;;4791909;29;20051;-96
2023/12/12 13:48:33;;;;;;;23.95;15.60;;;;;;;;;;4777892;29;20070;-96
2023/12/12 13:50:59;;;;;;;29.10;17.02;;;;;;;;;;4792358;29;20078;-96
2023/12/12 13:53:25;;;;;;;26.60;16.52;;;;;;;;;;4803392;29;20047;-95
2023/12/12 13:55:53;;;;;;;25.67;15.25;;;;;;;;;;4810665;29;20050;-96
2023/12/12 13:58:20;;;;;;;30.60;16.45;;;;;;;;;;4781270;29;20496;-96
2023/12/12 14:00:46;;;;;;;29.00;17.98;;;;;;;;;;4777873;29;20172;-96
2023/12/12 14:03:12;;;;;;;27.67;17.73;;;;;;;;;;4777105;29;20090;-96
2023/12/12 14:05:41;;;;;;;25.27;16.30;;;;;;;;;;4793477;29;20107;-96
2023/12/12 14:08:07;;;;;;;26.10;16.20;;;;;;;;;;4809754;29;20054;-95
2023/12/12 14:10:35;;;;;;;28.13;16.98;;;;;;;;;;4795008;29;20054;-96
2023/12/12 14:13:02;;;;;;;32.97;17.38;;;;;;;;;;4810104;29;20054;-96
2023/12/12 14:15:31;;;;;;;29.77;18.13;;;;;;;;;;4810824;29;20053;-96
2023/12/12 14:17:57;;;;;;;41.75;18.73;;;;;;;;;;4810554;29;20066;-96
2023/12/12 14:20:24;;;;;;;32.63;19.15;;;;;;;;;;4808373;29;20042;-96
2023/12/12 14:22:53;;;;;;;37.22;18.85;;;;;;;;;;4811155;29;20123;-96
2023/12/12 14:25:20;;;;;;;39.60;18.88;;;;;;;;;;4810769;29;20111;-95
2023/12/12 14:27:47;;;;;;;45.78;20.45;;;;;;;;;;4810279;29;20054;-96
2023/12/12 14:30:17;;;;;;;38.60;21.33;;;;;;;;;;4809558;29;20137;-96